Terminal Aerodrome Forecast
Issued by NWS

Home | Current Version | Previous Version | Graphics & Text | Print | Product List | Glossary On
Versions: 1 2 3 4 5 6 7 8 9 10 11 12 13 14 15 16
008
FTUS43 KICT 152342
TAFRSL
TAF
KRSL 152342Z 1600/1624 17014G23KT P6SM FEW080
     FM160100 15011KT P6SM SCT200
     FM160800 16011KT P6SM VCTS BKN070CB
     FM161300 18009KT P6SM BKN120
     FM161800 23010KT P6SM FEW060 SCT100
     FM162300 33012KT P6SM SCT110=

USA.gov is the U.S. government's official web portal to all federal, state and local government web resources and services.